sensor_id;sensor_type;location;lat;lon;timestamp;P1;durP1;ratioP1;P2;durP2;ratioP2
80423;SDS011;69765;47.668;19.326;2023-05-07T00:01:14;21.70;;;15.32;;
80423;SDS011;69765;47.668;19.326;2023-05-07T00:04:17;21.10;;;14.07;;
80423;SDS011;69765;47.668;19.326;2023-05-07T00:07:20;21.08;;;15.13;;
80423;SDS011;69765;47.668;19.326;2023-05-07T00:10:22;23.83;;;16.30;;
80423;SDS011;69765;47.668;19.326;2023-05-07T00:13:25;20.92;;;14.85;;
80423;SDS011;69765;47.668;19.326;2023-05-07T00:16:27;19.92;;;14.32;;
80423;SDS011;69765;47.668;19.326;2023-05-07T00:19:30;22.10;;;14.32;;
80423;SDS011;69765;47.668;19.326;2023-05-07T00:22:32;20.92;;;15.40;;
80423;SDS011;69765;47.668;19.326;2023-05-07T00:25:34;23.10;;;14.88;;
80423;SDS011;69765;47.668;19.326;2023-05-07T00:28:37;20.50;;;14.68;;
80423;SDS011;69765;47.668;19.326;2023-05-07T00:31:39;20.63;;;14.88;;
80423;SDS011;69765;47.668;19.326;2023-05-07T00:34:42;21.80;;;16.50;;
80423;SDS011;69765;47.668;19.326;2023-05-07T00:37:45;21.23;;;15.32;;
80423;SDS011;69765;47.668;19.326;2023-05-07T00:40:47;19.45;;;14.52;;
80423;SDS011;69765;47.668;19.326;2023-05-07T00:43:50;22.25;;;16.30;;
80423;SDS011;69765;47.668;19.326;2023-05-07T00:46:53;21.80;;;15.32;;
80423;SDS011;69765;47.668;19.326;2023-05-07T00:49:56;22.10;;;17.02;;
80423;SDS011;69765;47.668;19.326;2023-05-07T00:52:59;22.02;;;14.77;;
80423;SDS011;69765;47.668;19.326;2023-05-07T00:56:02;18.80;;;12.88;;
80423;SDS011;69765;47.668;19.326;2023-05-07T00:59:05;18.02;;;14.10;;
80423;SDS011;69765;47.668;19.326;2023-05-07T01:02:08;17.35;;;13.50;;
80423;SDS011;69765;47.668;19.326;2023-05-07T01:05:11;19.92;;;13.35;;
80423;SDS011;69765;47.668;19.326;2023-05-07T01:08:16;19.55;;;13.98;;
80423;SDS011;69765;47.668;19.326;2023-05-07T01:11:20;15.88;;;12.75;;
80423;SDS011;69765;47.668;19.326;2023-05-07T01:14:23;20.70;;;14.13;;
80423;SDS011;69765;47.668;19.326;2023-05-07T01:17:27;20.35;;;13.75;;
80423;SDS011;69765;47.668;19.326;2023-05-07T01:20:29;17.48;;;13.63;;
80423;SDS011;69765;47.668;19.326;2023-05-07T01:23:32;18.75;;;14.57;;
80423;SDS011;69765;47.668;19.326;2023-05-07T01:26:35;21.30;;;15.07;;
80423;SDS011;69765;47.668;19.326;2023-05-07T01:29:38;17.73;;;13.07;;
80423;SDS011;69765;47.668;19.326;2023-05-07T01:32:51;18.13;;;13.98;;
80423;SDS011;69765;47.668;19.326;2023-05-07T01:36:10;20.33;;;14.50;;
80423;SDS011;69765;47.668;19.326;2023-05-07T01:39:15;21.10;;;14.13;;
80423;SDS011;69765;47.668;19.326;2023-05-07T01:42:18;23.48;;;15.50;;
80423;SDS011;69765;47.668;19.326;2023-05-07T01:45:20;22.10;;;16.42;;
80423;SDS011;69765;47.668;19.326;2023-05-07T01:48:24;20.98;;;13.98;;
80423;SDS011;69765;47.668;19.326;2023-05-07T01:51:26;20.20;;;14.48;;
80423;SDS011;69765;47.668;19.326;2023-05-07T01:54:30;19.23;;;12.82;;
80423;SDS011;69765;47.668;19.326;2023-05-07T01:57:33;19.83;;;14.35;;
80423;SDS011;69765;47.668;19.326;2023-05-07T02:00:36;19.35;;;14.10;;
80423;SDS011;69765;47.668;19.326;2023-05-07T02:03:39;18.20;;;13.80;;
80423;SDS011;69765;47.668;19.326;2023-05-07T02:06:48;18.52;;;13.43;;
80423;SDS011;69765;47.668;19.326;2023-05-07T02:09:51;17.75;;;13.32;;
80423;SDS011;69765;47.668;19.326;2023-05-07T02:12:54;18.08;;;13.15;;
80423;SDS011;69765;47.668;19.326;2023-05-07T02:15:57;16.95;;;12.50;;
80423;SDS011;69765;47.668;19.326;2023-05-07T02:19:01;18.33;;;14.32;;
80423;SDS011;69765;47.668;19.326;2023-05-07T02:22:03;20.20;;;14.25;;
80423;SDS011;69765;47.668;19.326;2023-05-07T02:25:05;19.20;;;12.77;;
80423;SDS011;69765;47.668;19.326;2023-05-07T02:28:08;19.67;;;13.25;;
80423;SDS011;69765;47.668;19.326;2023-05-07T02:31:39;19.00;;;13.75;;
80423;SDS011;69765;47.668;19.326;2023-05-07T02:34:42;17.88;;;13.25;;
80423;SDS011;69765;47.668;19.326;2023-05-07T02:37:44;15.80;;;13.27;;
80423;SDS011;69765;47.668;19.326;2023-05-07T02:40:48;18.73;;;13.20;;
80423;SDS011;69765;47.668;19.326;2023-05-07T02:43:51;21.17;;;14.13;;
80423;SDS011;69765;47.668;19.326;2023-05-07T02:46:53;20.42;;;13.65;;
80423;SDS011;69765;47.668;19.326;2023-05-07T02:49:56;20.65;;;14.82;;
80423;SDS011;69765;47.668;19.326;2023-05-07T02:52:59;22.30;;;15.52;;
80423;SDS011;69765;47.668;19.326;2023-05-07T02:56:01;19.92;;;14.73;;
80423;SDS011;69765;47.668;19.326;2023-05-07T02:59:04;19.92;;;13.65;;
80423;SDS011;69765;47.668;19.326;2023-05-07T03:02:11;20.73;;;15.75;;
80423;SDS011;69765;47.668;19.326;2023-05-07T03:05:14;24.67;;;16.30;;
80423;SDS011;69765;47.668;19.326;2023-05-07T03:08:16;21.38;;;14.20;;
80423;SDS011;69765;47.668;19.326;2023-05-07T03:11:19;22.05;;;15.13;;
80423;SDS011;69765;47.668;19.326;2023-05-07T03:14:21;24.55;;;14.45;;
80423;SDS011;69765;47.668;19.326;2023-05-07T03:17:24;22.23;;;13.90;;
80423;SDS011;69765;47.668;19.326;2023-05-07T03:20:26;17.88;;;13.32;;
80423;SDS011;69765;47.668;19.326;2023-05-07T03:23:29;17.67;;;14.27;;
80423;SDS011;69765;47.668;19.326;2023-05-07T03:26:32;17.27;;;13.05;;
80423;SDS011;69765;47.668;19.326;2023-05-07T03:29:34;18.17;;;13.35;;
80423;SDS011;69765;47.668;19.326;2023-05-07T03:32:37;18.17;;;14.65;;
80423;SDS011;69765;47.668;19.326;2023-05-07T03:35:43;18.33;;;12.05;;
80423;SDS011;69765;47.668;19.326;2023-05-07T03:38:47;16.92;;;13.38;;
80423;SDS011;69765;47.668;19.326;2023-05-07T03:41:54;16.73;;;13.40;;
80423;SDS011;69765;47.668;19.326;2023-05-07T03:44:56;15.88;;;12.02;;
80423;SDS011;69765;47.668;19.326;2023-05-07T03:47:59;15.27;;;12.52;;
80423;SDS011;69765;47.668;19.326;2023-05-07T03:51:02;19.38;;;14.35;;
80423;SDS011;69765;47.668;19.326;2023-05-07T03:54:07;20.42;;;15.27;;
80423;SDS011;69765;47.668;19.326;2023-05-07T03:57:10;21.23;;;14.45;;
80423;SDS011;69765;47.668;19.326;2023-05-07T04:00:13;20.08;;;14.00;;
80423;SDS011;69765;47.668;19.326;2023-05-07T04:06:24;20.38;;;14.13;;
80423;SDS011;69765;47.668;19.326;2023-05-07T04:09:27;20.02;;;13.52;;
80423;SDS011;69765;47.668;19.326;2023-05-07T04:12:31;22.27;;;16.65;;
80423;SDS011;69765;47.668;19.326;2023-05-07T04:15:35;23.10;;;15.48;;
80423;SDS011;69765;47.668;19.326;2023-05-07T04:18:40;20.42;;;14.88;;
80423;SDS011;69765;47.668;19.326;2023-05-07T04:21:43;21.02;;;16.10;;
80423;SDS011;69765;47.668;19.326;2023-05-07T04:24:45;20.77;;;14.93;;
80423;SDS011;69765;47.668;19.326;2023-05-07T04:27:48;23.05;;;16.42;;
80423;SDS011;69765;47.668;19.326;2023-05-07T04:30:52;24.55;;;16.58;;
80423;SDS011;69765;47.668;19.326;2023-05-07T04:33:56;23.60;;;14.88;;
80423;SDS011;69765;47.668;19.326;2023-05-07T04:36:58;23.20;;;14.98;;
80423;SDS011;69765;47.668;19.326;2023-05-07T04:40:01;25.65;;;16.58;;
80423;SDS011;69765;47.668;19.326;2023-05-07T04:43:05;21.27;;;15.48;;
80423;SDS011;69765;47.668;19.326;2023-05-07T04:46:14;22.30;;;15.40;;
80423;SDS011;69765;47.668;19.326;2023-05-07T04:49:17;18.73;;;13.95;;
80423;SDS011;69765;47.668;19.326;2023-05-07T04:52:20;21.33;;;15.50;;
80423;SDS011;69765;47.668;19.326;2023-05-07T04:55:23;22.38;;;16.15;;
80423;SDS011;69765;47.668;19.326;2023-05-07T04:58:25;24.00;;;14.77;;
80423;SDS011;69765;47.668;19.326;2023-05-07T05:01:28;20.70;;;14.95;;
80423;SDS011;69765;47.668;19.326;2023-05-07T05:04:30;21.52;;;15.30;;
80423;SDS011;69765;47.668;19.326;2023-05-07T05:07:33;25.27;;;17.00;;
80423;SDS011;69765;47.668;19.326;2023-05-07T05:10:36;36.03;;;24.95;;
80423;SDS011;69765;47.668;19.326;2023-05-07T05:13:40;34.78;;;23.85;;
80423;SDS011;69765;47.668;19.326;2023-05-07T05:16:50;31.92;;;20.95;;
80423;SDS011;69765;47.668;19.326;2023-05-07T05:19:53;25.48;;;17.85;;
80423;SDS011;69765;47.668;19.326;2023-05-07T05:22:59;23.83;;;15.40;;
80423;SDS011;69765;47.668;19.326;2023-05-07T05:26:02;24.98;;;18.20;;
80423;SDS011;69765;47.668;19.326;2023-05-07T05:29:07;25.95;;;20.10;;
80423;SDS011;69765;47.668;19.326;2023-05-07T05:32:13;28.00;;;19.15;;
80423;SDS011;69765;47.668;19.326;2023-05-07T05:35:16;21.85;;;16.40;;
80423;SDS011;69765;47.668;19.326;2023-05-07T05:38:18;22.42;;;16.52;;
80423;SDS011;69765;47.668;19.326;2023-05-07T05:41:22;21.30;;;16.50;;
80423;SDS011;69765;47.668;19.326;2023-05-07T05:44:25;21.45;;;14.98;;
80423;SDS011;69765;47.668;19.326;2023-05-07T05:47:27;21.80;;;14.85;;
80423;SDS011;69765;47.668;19.326;2023-05-07T05:50:30;19.10;;;13.77;;
80423;SDS011;69765;47.668;19.326;2023-05-07T05:53:33;39.92;;;16.80;;
80423;SDS011;69765;47.668;19.326;2023-05-07T05:56:36;13.82;;;11.77;;
80423;SDS011;69765;47.668;19.326;2023-05-07T05:59:39;14.52;;;11.30;;
80423;SDS011;69765;47.668;19.326;2023-05-07T06:02:42;16.95;;;12.85;;
80423;SDS011;69765;47.668;19.326;2023-05-07T06:05:47;15.82;;;12.20;;
80423;SDS011;69765;47.668;19.326;2023-05-07T06:08:49;15.98;;;11.30;;
80423;SDS011;69765;47.668;19.326;2023-05-07T06:11:56;12.50;;;9.15;;
80423;SDS011;69765;47.668;19.326;2023-05-07T06:15:03;10.15;;;7.35;;
80423;SDS011;69765;47.668;19.326;2023-05-07T06:18:06;12.30;;;9.40;;
80423;SDS011;69765;47.668;19.326;2023-05-07T06:21:09;12.35;;;9.52;;
80423;SDS011;69765;47.668;19.326;2023-05-07T06:24:13;11.50;;;9.90;;
80423;SDS011;69765;47.668;19.326;2023-05-07T06:27:15;10.90;;;7.68;;
80423;SDS011;69765;47.668;19.326;2023-05-07T06:30:19;12.57;;;10.07;;
80423;SDS011;69765;47.668;19.326;2023-05-07T06:33:21;13.02;;;9.27;;
80423;SDS011;69765;47.668;19.326;2023-05-07T06:36:24;10.75;;;7.45;;
80423;SDS011;69765;47.668;19.326;2023-05-07T06:39:29;8.15;;;5.60;;
80423;SDS011;69765;47.668;19.326;2023-05-07T06:42:32;8.18;;;5.53;;
80423;SDS011;69765;47.668;19.326;2023-05-07T06:45:51;5.05;;;4.53;;
80423;SDS011;69765;47.668;19.326;2023-05-07T06:48:54;7.45;;;5.82;;
80423;SDS011;69765;47.668;19.326;2023-05-07T06:51:57;6.60;;;5.45;;
80423;SDS011;69765;47.668;19.326;2023-05-07T06:54:59;5.60;;;4.40;;
80423;SDS011;69765;47.668;19.326;2023-05-07T06:58:02;4.70;;;4.20;;
80423;SDS011;69765;47.668;19.326;2023-05-07T07:01:04;5.38;;;4.05;;
80423;SDS011;69765;47.668;19.326;2023-05-07T07:04:07;4.85;;;3.38;;
80423;SDS011;69765;47.668;19.326;2023-05-07T07:07:11;4.10;;;2.83;;
80423;SDS011;69765;47.668;19.326;2023-05-07T07:10:15;3.20;;;2.47;;
80423;SDS011;69765;47.668;19.326;2023-05-07T07:13:17;5.55;;;3.20;;
80423;SDS011;69765;47.668;19.326;2023-05-07T07:16:20;4.22;;;2.88;;
80423;SDS011;69765;47.668;19.326;2023-05-07T07:19:25;3.78;;;3.03;;
80423;SDS011;69765;47.668;19.326;2023-05-07T07:22:31;5.20;;;3.17;;
80423;SDS011;69765;47.668;19.326;2023-05-07T07:25:34;3.30;;;2.78;;
80423;SDS011;69765;47.668;19.326;2023-05-07T07:28:41;3.55;;;3.00;;
80423;SDS011;69765;47.668;19.326;2023-05-07T07:31:48;3.45;;;2.40;;
80423;SDS011;69765;47.668;19.326;2023-05-07T07:34:53;4.13;;;2.33;;
80423;SDS011;69765;47.668;19.326;2023-05-07T07:37:55;2.63;;;1.80;;
80423;SDS011;69765;47.668;19.326;2023-05-07T07:40:58;3.35;;;2.67;;
80423;SDS011;69765;47.668;19.326;2023-05-07T07:44:02;3.75;;;2.50;;
80423;SDS011;69765;47.668;19.326;2023-05-07T07:47:06;3.05;;;2.75;;
80423;SDS011;69765;47.668;19.326;2023-05-07T07:50:09;4.10;;;2.35;;
80423;SDS011;69765;47.668;19.326;2023-05-07T07:53:16;3.58;;;2.45;;
80423;SDS011;69765;47.668;19.326;2023-05-07T07:56:19;3.03;;;2.08;;
80423;SDS011;69765;47.668;19.326;2023-05-07T07:59:22;3.30;;;2.60;;
80423;SDS011;69765;47.668;19.326;2023-05-07T08:02:25;4.10;;;2.25;;
80423;SDS011;69765;47.668;19.326;2023-05-07T08:05:27;2.40;;;2.15;;
80423;SDS011;69765;47.668;19.326;2023-05-07T08:08:31;3.17;;;2.40;;
80423;SDS011;69765;47.668;19.326;2023-05-07T08:11:34;3.97;;;2.30;;
80423;SDS011;69765;47.668;19.326;2023-05-07T08:14:37;3.80;;;2.65;;
80423;SDS011;69765;47.668;19.326;2023-05-07T08:17:41;3.05;;;2.25;;
80423;SDS011;69765;47.668;19.326;2023-05-07T08:20:46;3.67;;;2.75;;
80423;SDS011;69765;47.668;19.326;2023-05-07T08:23:53;3.28;;;2.38;;
80423;SDS011;69765;47.668;19.326;2023-05-07T08:26:57;3.40;;;2.45;;
80423;SDS011;69765;47.668;19.326;2023-05-07T08:29:59;2.67;;;2.17;;
80423;SDS011;69765;47.668;19.326;2023-05-07T08:33:02;3.90;;;2.38;;
80423;SDS011;69765;47.668;19.326;2023-05-07T08:36:05;2.78;;;2.42;;
80423;SDS011;69765;47.668;19.326;2023-05-07T08:39:08;4.68;;;2.47;;
80423;SDS011;69765;47.668;19.326;2023-05-07T08:42:11;4.45;;;3.88;;
80423;SDS011;69765;47.668;19.326;2023-05-07T08:45:19;3.47;;;2.30;;
80423;SDS011;69765;47.668;19.326;2023-05-07T08:48:26;4.82;;;2.35;;
80423;SDS011;69765;47.668;19.326;2023-05-07T08:54:43;2.60;;;2.22;;
80423;SDS011;69765;47.668;19.326;2023-05-07T08:57:46;3.00;;;2.30;;
80423;SDS011;69765;47.668;19.326;2023-05-07T09:00:51;2.85;;;2.25;;
80423;SDS011;69765;47.668;19.326;2023-05-07T09:03:57;3.05;;;2.63;;
80423;SDS011;69765;47.668;19.326;2023-05-07T09:07:02;3.33;;;2.40;;
80423;SDS011;69765;47.668;19.326;2023-05-07T09:10:12;2.58;;;2.20;;
80423;SDS011;69765;47.668;19.326;2023-05-07T09:13:16;3.35;;;2.67;;
80423;SDS011;69765;47.668;19.326;2023-05-07T09:16:20;4.10;;;2.60;;
80423;SDS011;69765;47.668;19.326;2023-05-07T09:19:25;3.55;;;2.55;;
80423;SDS011;69765;47.668;19.326;2023-05-07T09:22:33;3.13;;;2.45;;
80423;SDS011;69765;47.668;19.326;2023-05-07T09:25:41;3.92;;;2.67;;
80423;SDS011;69765;47.668;19.326;2023-05-07T09:28:50;3.35;;;2.45;;
80423;SDS011;69765;47.668;19.326;2023-05-07T09:31:54;3.50;;;2.35;;
80423;SDS011;69765;47.668;19.326;2023-05-07T09:34:58;2.95;;;2.25;;
80423;SDS011;69765;47.668;19.326;2023-05-07T09:38:01;3.60;;;2.05;;
80423;SDS011;69765;47.668;19.326;2023-05-07T09:41:08;3.22;;;2.53;;
80423;SDS011;69765;47.668;19.326;2023-05-07T09:44:20;4.57;;;2.78;;
80423;SDS011;69765;47.668;19.326;2023-05-07T09:47:25;3.67;;;2.97;;
80423;SDS011;69765;47.668;19.326;2023-05-07T09:50:40;2.80;;;2.22;;
80423;SDS011;69765;47.668;19.326;2023-05-07T09:53:53;4.15;;;2.47;;
80423;SDS011;69765;47.668;19.326;2023-05-07T09:56:57;3.22;;;2.45;;
80423;SDS011;69765;47.668;19.326;2023-05-07T10:00:03;3.20;;;2.50;;
80423;SDS011;69765;47.668;19.326;2023-05-07T10:06:25;5.85;;;4.00;;
80423;SDS011;69765;47.668;19.326;2023-05-07T10:09:27;3.95;;;2.30;;
80423;SDS011;69765;47.668;19.326;2023-05-07T10:12:31;3.22;;;2.33;;
80423;SDS011;69765;47.668;19.326;2023-05-07T10:15:42;3.30;;;2.60;;
80423;SDS011;69765;47.668;19.326;2023-05-07T10:18:45;3.45;;;2.85;;
80423;SDS011;69765;47.668;19.326;2023-05-07T10:21:58;4.13;;;2.67;;
80423;SDS011;69765;47.668;19.326;2023-05-07T10:25:06;3.42;;;2.40;;
80423;SDS011;69765;47.668;19.326;2023-05-07T10:28:16;6.50;;;3.50;;
80423;SDS011;69765;47.668;19.326;2023-05-07T10:34:47;5.07;;;3.53;;
80423;SDS011;69765;47.668;19.326;2023-05-07T10:37:53;2.63;;;2.00;;
80423;SDS011;69765;47.668;19.326;2023-05-07T10:40:59;2.47;;;1.70;;
80423;SDS011;69765;47.668;19.326;2023-05-07T10:44:04;2.78;;;1.95;;
80423;SDS011;69765;47.668;19.326;2023-05-07T10:56:34;3.17;;;2.88;;
80423;SDS011;69765;47.668;19.326;2023-05-07T10:59:51;2.70;;;1.40;;
80423;SDS011;69765;47.668;19.326;2023-05-07T11:06:15;2.25;;;1.83;;
80423;SDS011;69765;47.668;19.326;2023-05-07T11:12:58;3.53;;;2.13;;
80423;SDS011;69765;47.668;19.326;2023-05-07T11:16:21;2.20;;;1.88;;
80423;SDS011;69765;47.668;19.326;2023-05-07T11:19:48;3.45;;;1.92;;
80423;SDS011;69765;47.668;19.326;2023-05-07T11:23:54;4.78;;;1.95;;
80423;SDS011;69765;47.668;19.326;2023-05-07T11:26:55;5.00;;;4.40;;
80423;SDS011;69765;47.668;19.326;2023-05-07T11:29:59;3.85;;;3.03;;
80423;SDS011;69765;47.668;19.326;2023-05-07T11:33:04;4.85;;;3.60;;
80423;SDS011;69765;47.668;19.326;2023-05-07T11:36:08;3.10;;;2.38;;
80423;SDS011;69765;47.668;19.326;2023-05-07T11:39:51;3.80;;;2.42;;
80423;SDS011;69765;47.668;19.326;2023-05-07T11:42:45;4.70;;;2.90;;
80423;SDS011;69765;47.668;19.326;2023-05-07T11:45:48;2.83;;;2.50;;
80423;SDS011;69765;47.668;19.326;2023-05-07T11:48:51;3.72;;;2.42;;
80423;SDS011;69765;47.668;19.326;2023-05-07T11:51:54;4.70;;;2.70;;
80423;SDS011;69765;47.668;19.326;2023-05-07T11:54:57;4.57;;;2.85;;
80423;SDS011;69765;47.668;19.326;2023-05-07T11:58:02;3.10;;;2.70;;
80423;SDS011;69765;47.668;19.326;2023-05-07T12:01:06;3.10;;;2.65;;
80423;SDS011;69765;47.668;19.326;2023-05-07T12:04:11;3.72;;;2.63;;
80423;SDS011;69765;47.668;19.326;2023-05-07T12:07:14;3.25;;;2.53;;
80423;SDS011;69765;47.668;19.326;2023-05-07T12:10:17;3.70;;;3.08;;
80423;SDS011;69765;47.668;19.326;2023-05-07T12:13:22;3.60;;;2.95;;
80423;SDS011;69765;47.668;19.326;2023-05-07T12:16:27;3.28;;;2.45;;
80423;SDS011;69765;47.668;19.326;2023-05-07T12:19:30;3.47;;;2.38;;
80423;SDS011;69765;47.668;19.326;2023-05-07T12:22:32;5.25;;;3.47;;
80423;SDS011;69765;47.668;19.326;2023-05-07T12:25:35;4.25;;;3.08;;
80423;SDS011;69765;47.668;19.326;2023-05-07T12:28:38;4.97;;;3.28;;
80423;SDS011;69765;47.668;19.326;2023-05-07T12:31:41;3.92;;;2.88;;
80423;SDS011;69765;47.668;19.326;2023-05-07T12:34:46;6.38;;;3.35;;
80423;SDS011;69765;47.668;19.326;2023-05-07T12:37:56;4.28;;;3.50;;
80423;SDS011;69765;47.668;19.326;2023-05-07T12:41:01;4.25;;;3.25;;
80423;SDS011;69765;47.668;19.326;2023-05-07T12:44:04;3.70;;;3.17;;
80423;SDS011;69765;47.668;19.326;2023-05-07T12:47:07;3.42;;;2.85;;
80423;SDS011;69765;47.668;19.326;2023-05-07T12:50:10;3.22;;;2.55;;
80423;SDS011;69765;47.668;19.326;2023-05-07T12:53:13;4.80;;;2.95;;
80423;SDS011;69765;47.668;19.326;2023-05-07T12:56:16;3.97;;;3.03;;
80423;SDS011;69765;47.668;19.326;2023-05-07T12:59:19;6.45;;;2.75;;
80423;SDS011;69765;47.668;19.326;2023-05-07T13:02:21;3.33;;;2.38;;
80423;SDS011;69765;47.668;19.326;2023-05-07T13:05:34;4.75;;;2.92;;
80423;SDS011;69765;47.668;19.326;2023-05-07T13:08:38;5.47;;;2.33;;
80423;SDS011;69765;47.668;19.326;2023-05-07T13:11:45;3.13;;;2.22;;
80423;SDS011;69765;47.668;19.326;2023-05-07T13:14:47;4.25;;;2.13;;
80423;SDS011;69765;47.668;19.326;2023-05-07T13:17:49;4.93;;;2.42;;
80423;SDS011;69765;47.668;19.326;2023-05-07T13:20:52;4.35;;;2.60;;
80423;SDS011;69765;47.668;19.326;2023-05-07T13:23:55;3.47;;;2.80;;
80423;SDS011;69765;47.668;19.326;2023-05-07T13:26:58;4.85;;;2.85;;
80423;SDS011;69765;47.668;19.326;2023-05-07T13:30:00;3.53;;;2.63;;
80423;SDS011;69765;47.668;19.326;2023-05-07T13:33:02;3.28;;;2.63;;
80423;SDS011;69765;47.668;19.326;2023-05-07T13:36:05;3.38;;;2.42;;
80423;SDS011;69765;47.668;19.326;2023-05-07T13:39:08;3.15;;;2.53;;
80423;SDS011;69765;47.668;19.326;2023-05-07T13:42:11;3.60;;;2.60;;
80423;SDS011;69765;47.668;19.326;2023-05-07T13:45:13;5.32;;;2.72;;
80423;SDS011;69765;47.668;19.326;2023-05-07T13:48:16;3.40;;;2.55;;
80423;SDS011;69765;47.668;19.326;2023-05-07T13:51:18;3.90;;;2.58;;
80423;SDS011;69765;47.668;19.326;2023-05-07T13:54:20;3.97;;;2.80;;
80423;SDS011;69765;47.668;19.326;2023-05-07T13:57:23;3.47;;;2.78;;
80423;SDS011;69765;47.668;19.326;2023-05-07T14:00:25;3.13;;;2.38;;
80423;SDS011;69765;47.668;19.326;2023-05-07T14:03:29;2.97;;;2.45;;
80423;SDS011;69765;47.668;19.326;2023-05-07T14:06:33;3.20;;;2.30;;
80423;SDS011;69765;47.668;19.326;2023-05-07T14:09:37;3.35;;;2.53;;
80423;SDS011;69765;47.668;19.326;2023-05-07T14:12:40;3.72;;;2.58;;
80423;SDS011;69765;47.668;19.326;2023-05-07T14:15:43;4.78;;;2.75;;
80423;SDS011;69765;47.668;19.326;2023-05-07T14:18:48;3.28;;;2.72;;
80423;SDS011;69765;47.668;19.326;2023-05-07T14:21:51;3.97;;;2.80;;
80423;SDS011;69765;47.668;19.326;2023-05-07T14:24:53;3.72;;;2.33;;
80423;SDS011;69765;47.668;19.326;2023-05-07T14:28:07;4.32;;;2.70;;
80423;SDS011;69765;47.668;19.326;2023-05-07T14:31:10;3.70;;;2.50;;
80423;SDS011;69765;47.668;19.326;2023-05-07T14:34:12;3.72;;;2.65;;
80423;SDS011;69765;47.668;19.326;2023-05-07T14:37:14;4.93;;;2.70;;
80423;SDS011;69765;47.668;19.326;2023-05-07T14:40:17;3.70;;;2.88;;
80423;SDS011;69765;47.668;19.326;2023-05-07T14:43:19;4.00;;;2.58;;
80423;SDS011;69765;47.668;19.326;2023-05-07T14:46:23;3.92;;;2.88;;
80423;SDS011;69765;47.668;19.326;2023-05-07T14:49:26;3.50;;;2.40;;
80423;SDS011;69765;47.668;19.326;2023-05-07T14:52:29;4.22;;;2.67;;
80423;SDS011;69765;47.668;19.326;2023-05-07T14:55:31;4.50;;;2.50;;
80423;SDS011;69765;47.668;19.326;2023-05-07T14:58:36;3.53;;;2.50;;
80423;SDS011;69765;47.668;19.326;2023-05-07T15:01:39;3.58;;;2.15;;
80423;SDS011;69765;47.668;19.326;2023-05-07T15:04:44;3.20;;;2.17;;
80423;SDS011;69765;47.668;19.326;2023-05-07T15:07:50;4.70;;;2.45;;
80423;SDS011;69765;47.668;19.326;2023-05-07T15:10:52;3.55;;;2.28;;
80423;SDS011;69765;47.668;19.326;2023-05-07T15:13:55;3.50;;;2.50;;
80423;SDS011;69765;47.668;19.326;2023-05-07T15:16:58;3.92;;;2.10;;
80423;SDS011;69765;47.668;19.326;2023-05-07T15:20:00;4.22;;;2.50;;
80423;SDS011;69765;47.668;19.326;2023-05-07T15:23:03;8.38;;;2.88;;
80423;SDS011;69765;47.668;19.326;2023-05-07T15:26:07;4.88;;;2.20;;
80423;SDS011;69765;47.668;19.326;2023-05-07T15:29:10;4.82;;;2.60;;
80423;SDS011;69765;47.668;19.326;2023-05-07T15:32:12;5.82;;;2.63;;
80423;SDS011;69765;47.668;19.326;2023-05-07T15:35:15;4.75;;;3.08;;
80423;SDS011;69765;47.668;19.326;2023-05-07T15:38:17;4.10;;;2.70;;
80423;SDS011;69765;47.668;19.326;2023-05-07T15:41:20;5.05;;;2.35;;
80423;SDS011;69765;47.668;19.326;2023-05-07T15:44:22;8.85;;;2.40;;
80423;SDS011;69765;47.668;19.326;2023-05-07T15:47:29;3.75;;;2.28;;
80423;SDS011;69765;47.668;19.326;2023-05-07T15:50:34;4.32;;;2.92;;
80423;SDS011;69765;47.668;19.326;2023-05-07T15:53:37;2.90;;;2.22;;
80423;SDS011;69765;47.668;19.326;2023-05-07T15:56:41;3.88;;;2.20;;
80423;SDS011;69765;47.668;19.326;2023-05-07T15:59:43;3.88;;;2.42;;
80423;SDS011;69765;47.668;19.326;2023-05-07T16:02:45;4.85;;;3.13;;
80423;SDS011;69765;47.668;19.326;2023-05-07T16:05:48;4.32;;;2.25;;
80423;SDS011;69765;47.668;19.326;2023-05-07T16:08:50;3.80;;;2.58;;
80423;SDS011;69765;47.668;19.326;2023-05-07T16:11:53;5.72;;;2.85;;
80423;SDS011;69765;47.668;19.326;2023-05-07T16:14:55;3.50;;;2.50;;
80423;SDS011;69765;47.668;19.326;2023-05-07T16:17:57;3.55;;;2.47;;
80423;SDS011;69765;47.668;19.326;2023-05-07T16:21:00;5.28;;;2.53;;
80423;SDS011;69765;47.668;19.326;2023-05-07T16:24:03;3.70;;;2.83;;
80423;SDS011;69765;47.668;19.326;2023-05-07T16:27:05;4.35;;;3.10;;
80423;SDS011;69765;47.668;19.326;2023-05-07T16:30:08;4.55;;;2.58;;
80423;SDS011;69765;47.668;19.326;2023-05-07T16:33:10;4.95;;;3.58;;
80423;SDS011;69765;47.668;19.326;2023-05-07T16:36:13;4.13;;;3.25;;
80423;SDS011;69765;47.668;19.326;2023-05-07T16:39:15;5.18;;;2.90;;
80423;SDS011;69765;47.668;19.326;2023-05-07T16:42:18;4.80;;;3.00;;
80423;SDS011;69765;47.668;19.326;2023-05-07T16:45:20;6.40;;;3.08;;
80423;SDS011;69765;47.668;19.326;2023-05-07T16:48:24;5.38;;;3.60;;
80423;SDS011;69765;47.668;19.326;2023-05-07T16:51:27;6.60;;;3.50;;
80423;SDS011;69765;47.668;19.326;2023-05-07T16:54:30;5.22;;;2.90;;
80423;SDS011;69765;47.668;19.326;2023-05-07T16:57:32;6.13;;;3.33;;
80423;SDS011;69765;47.668;19.326;2023-05-07T17:00:35;4.00;;;2.80;;
80423;SDS011;69765;47.668;19.326;2023-05-07T17:03:51;3.58;;;2.30;;
80423;SDS011;69765;47.668;19.326;2023-05-07T17:06:55;5.25;;;2.63;;
80423;SDS011;69765;47.668;19.326;2023-05-07T17:10:00;3.85;;;2.40;;
80423;SDS011;69765;47.668;19.326;2023-05-07T17:13:03;3.25;;;2.42;;
80423;SDS011;69765;47.668;19.326;2023-05-07T17:16:06;4.43;;;2.28;;
80423;SDS011;69765;47.668;19.326;2023-05-07T17:19:08;4.75;;;2.40;;
80423;SDS011;69765;47.668;19.326;2023-05-07T17:22:11;6.35;;;2.50;;
80423;SDS011;69765;47.668;19.326;2023-05-07T17:25:13;3.80;;;2.17;;
80423;SDS011;69765;47.668;19.326;2023-05-07T17:28:16;3.58;;;2.45;;
80423;SDS011;69765;47.668;19.326;2023-05-07T17:31:19;5.28;;;2.33;;
80423;SDS011;69765;47.668;19.326;2023-05-07T17:34:21;3.60;;;2.83;;
80423;SDS011;69765;47.668;19.326;2023-05-07T17:37:24;5.43;;;2.65;;
80423;SDS011;69765;47.668;19.326;2023-05-07T17:40:27;9.70;;;4.43;;
80423;SDS011;69765;47.668;19.326;2023-05-07T17:43:30;2.95;;;2.00;;
80423;SDS011;69765;47.668;19.326;2023-05-07T17:46:32;5.13;;;2.03;;
80423;SDS011;69765;47.668;19.326;2023-05-07T17:49:35;2.90;;;2.22;;
80423;SDS011;69765;47.668;19.326;2023-05-07T17:52:39;3.13;;;2.22;;
80423;SDS011;69765;47.668;19.326;2023-05-07T17:55:42;2.78;;;1.92;;
80423;SDS011;69765;47.668;19.326;2023-05-07T17:58:46;6.13;;;2.70;;
80423;SDS011;69765;47.668;19.326;2023-05-07T18:02:00;3.88;;;2.28;;
80423;SDS011;69765;47.668;19.326;2023-05-07T18:05:02;6.72;;;3.22;;
80423;SDS011;69765;47.668;19.326;2023-05-07T18:08:05;6.60;;;3.55;;
80423;SDS011;69765;47.668;19.326;2023-05-07T18:11:08;5.05;;;3.47;;
80423;SDS011;69765;47.668;19.326;2023-05-07T18:14:11;7.22;;;3.30;;
80423;SDS011;69765;47.668;19.326;2023-05-07T18:17:13;6.97;;;3.95;;
80423;SDS011;69765;47.668;19.326;2023-05-07T18:20:16;5.90;;;3.35;;
80423;SDS011;69765;47.668;19.326;2023-05-07T18:23:18;5.47;;;3.42;;
80423;SDS011;69765;47.668;19.326;2023-05-07T18:26:20;6.82;;;3.60;;
80423;SDS011;69765;47.668;19.326;2023-05-07T18:29:24;5.45;;;3.30;;
80423;SDS011;69765;47.668;19.326;2023-05-07T18:32:27;5.93;;;3.05;;